Time;durP1;ratioP1;P1;durP2;ratioP2;P2;SDS_P1;SDS_P2;PMS_P1;PMS_P2;Temp;Humidity;BMP_temperature;BMP_pressure;BME280_temperature;BME280_humidity;BME280_pressure;Samples;Min_cycle;Max_cycle;Signal;HPM_P1;HPM_P2
2023/12/13 00:05:00;;;;;;;2.40;0.50;;;;;;;19.58;43.74;99566.63;16122205;19;130851;-50
2023/12/13 00:10:22;;;;;;;2.28;0.50;;;;;;;19.55;43.98;99556.13;16111746;19;131341;-50
2023/12/13 00:15:44;;;;;;;2.55;0.43;;;;;;;19.52;43.73;99551.13;16117760;19;129810;-53
2023/12/13 00:21:09;;;;;;;5.22;0.70;;;;;;;19.51;43.93;99550.28;16118534;19;130765;-49
2023/12/13 00:26:31;;;;;;;1.52;0.68;;;;;;;19.47;44.10;99548.38;16116724;19;131158;-51
2023/12/13 00:31:53;;;;;;;1.23;0.50;;;;;;;19.44;43.93;99549.78;16112038;19;130373;-49
2023/12/13 00:37:15;;;;;;;1.77;0.43;;;;;;;19.42;43.86;99545.66;16114879;19;130992;-50
2023/12/13 00:42:37;;;;;;;1.80;0.60;;;;;;;19.38;43.89;99546.22;16113925;19;129548;-46
2023/12/13 00:47:59;;;;;;;1.88;0.80;;;;;;;19.36;43.61;99553.97;16114839;19;130091;-49
2023/12/13 00:53:21;;;;;;;1.08;0.50;;;;;;;19.33;44.16;99550.97;16116611;19;135519;-52
2023/12/13 00:58:45;;;;;;;1.25;0.60;;;;;;;19.33;43.73;99542.63;16116651;19;130630;-47
2023/12/13 01:04:07;;;;;;;2.28;0.57;;;;;;;19.30;43.85;99544.03;16114931;19;130065;-50
2023/12/13 01:09:30;;;;;;;1.13;0.45;;;;;;;19.28;43.79;99542.66;16115328;19;130868;-48
2023/12/13 01:14:52;;;;;;;1.17;0.50;;;;;;;19.26;44.02;99542.94;16114663;19;130162;-51
2023/12/13 01:20:14;;;;;;;1.02;0.30;;;;;;;19.22;43.83;99536.28;16111898;19;131076;-51
2023/12/13 01:25:36;;;;;;;1.02;0.40;;;;;;;19.20;43.76;99538.53;16110634;19;133762;-50
2023/12/13 01:30:58;;;;;;;1.17;0.40;;;;;;;19.18;43.99;99551.84;16118082;19;129732;-51
2023/12/13 01:36:20;;;;;;;3.50;0.50;;;;;;;19.16;43.80;99534.66;16109607;19;129715;-50
2023/12/13 01:41:42;;;;;;;0.90;0.40;;;;;;;19.14;43.66;99539.63;16110951;19;131582;-48
2023/12/13 01:47:05;;;;;;;1.15;0.30;;;;;;;19.12;43.86;99541.84;16106644;19;129802;-47
2023/12/13 01:52:28;;;;;;;1.30;0.35;;;;;;;19.11;43.85;99556.84;16107495;19;129681;-53
2023/12/13 01:57:50;;;;;;;1.05;0.45;;;;;;;19.08;43.77;99547.97;16112953;19;130154;-52
2023/12/13 02:03:14;;;;;;;1.00;0.43;;;;;;;19.06;43.72;99544.66;16106305;19;132027;-50
2023/12/13 02:08:36;;;;;;;1.85;0.35;;;;;;;19.05;43.58;99542.16;16109927;19;134367;-52
2023/12/13 02:13:58;;;;;;;1.20;0.45;;;;;;;19.02;43.65;99537.19;16110406;19;130643;-51
2023/12/13 02:19:20;;;;;;;3.35;0.50;;;;;;;18.99;43.97;99527.50;16107242;19;130558;-51
2023/12/13 02:24:45;;;;;;;0.90;0.30;;;;;;;18.99;43.54;99529.44;16107784;19;129650;-50
2023/12/13 02:30:08;;;;;;;0.70;0.40;;;;;;;18.95;43.99;99534.75;16106846;19;129748;-50
2023/12/13 02:35:30;;;;;;;0.47;0.32;;;;;;;18.94;43.80;99530.31;16097783;19;131140;-51
2023/12/13 02:40:55;;;;;;;0.85;0.32;;;;;;;18.92;43.42;99532.53;16102745;19;131645;-48
2023/12/13 02:46:17;;;;;;;0.47;0.20;;;;;;;18.90;43.69;99520.88;16106557;19;130529;-46
2023/12/13 02:51:40;;;;;;;4.13;0.50;;;;;;;18.88;43.57;99521.19;16104287;19;131339;-49
2023/12/13 02:57:02;;;;;;;0.68;0.30;;;;;;;18.87;43.72;99508.44;16105763;19;129833;-52
2023/12/13 03:02:25;;;;;;;3.78;0.50;;;;;;;18.86;43.31;99515.09;16101462;19;130135;-48
2023/12/13 03:07:47;;;;;;;0.95;0.40;;;;;;;18.85;43.41;99513.41;16107543;19;131184;-52
2023/12/13 03:13:09;;;;;;;0.52;0.30;;;;;;;18.85;43.45;99510.66;16106665;19;129299;-53
2023/12/13 03:18:31;;;;;;;0.90;0.30;;;;;;;18.82;43.21;99511.22;16107364;19;129704;-50
2023/12/13 03:23:54;;;;;;;0.43;0.35;;;;;;;18.82;43.46;99504.84;16104962;19;129626;-53
2023/12/13 03:29:19;;;;;;;1.98;0.35;;;;;;;18.79;43.25;99500.69;16105736;19;130292;-49
2023/12/13 03:34:42;;;;;;;1.25;0.35;;;;;;;18.77;43.49;99498.22;16105523;19;131306;-49
2023/12/13 03:40:05;;;;;;;0.77;0.47;;;;;;;18.76;43.16;99496.53;16105982;19;131324;-46
2023/12/13 03:45:27;;;;;;;0.98;0.30;;;;;;;18.75;43.55;99486.56;16105536;19;130586;-53
2023/12/13 03:50:49;;;;;;;2.88;0.45;;;;;;;18.74;43.53;99487.69;16118862;19;130224;-51
2023/12/13 03:56:12;;;;;;;1.10;0.45;;;;;;;18.73;43.49;99477.72;16120340;19;131324;-52
2023/12/13 04:01:35;;;;;;;0.88;0.40;;;;;;;18.72;43.27;99487.13;16117909;19;129529;-50
2023/12/13 04:06:56;;;;;;;0.52;0.35;;;;;;;18.71;43.07;99488.25;16118441;19;129600;-50
2023/12/13 04:12:18;;;;;;;1.85;0.50;;;;;;;18.70;43.40;99485.75;16116756;19;130620;-48
2023/12/13 04:17:40;;;;;;;1.13;0.30;;;;;;;18.67;43.00;99481.63;16129320;19;129232;-48
2023/12/13 04:23:03;;;;;;;1.52;0.40;;;;;;;18.67;43.39;99486.31;16139460;19;131614;-49
2023/12/13 04:28:25;;;;;;;2.33;0.40;;;;;;;18.65;43.43;99481.06;16135245;19;129577;-48
2023/12/13 04:33:47;;;;;;;1.73;0.68;;;;;;;18.65;43.25;99485.75;16135756;19;131305;-55
2023/12/13 04:39:10;;;;;;;0.90;0.50;;;;;;;18.64;42.96;99481.38;16132401;19;129919;-52
2023/12/13 04:44:33;;;;;;;2.45;0.85;;;;;;;18.61;43.58;99478.03;16128835;19;129616;-52
2023/12/13 04:49:55;;;;;;;0.40;0.30;;;;;;;18.60;42.99;99481.91;16130986;19;129922;-49
2023/12/13 04:55:17;;;;;;;0.93;0.32;;;;;;;18.59;43.08;99487.72;16130316;19;130181;-47
2023/12/13 05:00:39;;;;;;;2.20;0.50;;;;;;;18.58;43.01;99480.56;16129141;19;130239;-52
2023/12/13 05:06:01;;;;;;;1.27;0.50;;;;;;;18.57;43.13;99478.88;16134677;19;133748;-48
2023/12/13 05:11:23;;;;;;;1.27;0.50;;;;;;;18.55;42.93;99483.88;16132304;19;129976;-48
2023/12/13 05:16:45;;;;;;;1.38;0.40;;;;;;;18.54;43.33;99471.94;16136096;19;130288;-50
2023/12/13 05:22:07;;;;;;;3.05;0.65;;;;;;;18.53;43.32;99472.25;16136255;19;129796;-50
2023/12/13 05:27:29;;;;;;;0.70;0.32;;;;;;;18.53;42.87;99477.78;16133508;19;131153;-51
2023/12/13 05:32:51;;;;;;;2.80;0.43;;;;;;;18.51;43.29;99478.06;16130993;19;130233;-47
2023/12/13 05:38:13;;;;;;;2.58;0.45;;;;;;;18.49;42.85;99474.75;16125489;19;130470;-52
2023/12/13 05:43:35;;;;;;;0.85;0.40;;;;;;;18.48;42.89;99470.31;16127196;19;129455;-48
2023/12/13 05:48:57;;;;;;;1.27;0.43;;;;;;;18.48;43.31;99473.09;16130814;19;131351;-48
2023/12/13 05:54:19;;;;;;;3.17;0.70;;;;;;;18.47;43.24;99474.19;16136803;19;129313;-49
2023/12/13 05:59:42;;;;;;;1.30;0.43;;;;;;;18.43;43.08;99485.00;16130393;19;131791;-46
2023/12/13 06:05:04;;;;;;;1.98;0.35;;;;;;;18.42;43.14;99475.03;16132521;19;129679;-52
2023/12/13 06:10:26;;;;;;;1.50;0.60;;;;;;;18.40;42.82;99482.78;16127738;19;130995;-51
2023/12/13 06:15:48;;;;;;;2.03;0.40;;;;;;;18.40;43.25;99482.78;16132373;19;129447;-48
2023/12/13 06:21:10;;;;;;;1.98;0.40;;;;;;;18.39;43.24;99481.13;16131063;19;129830;-49
2023/12/13 06:26:32;;;;;;;3.17;0.50;;;;;;;18.38;42.99;99478.63;16127974;19;131180;-49
2023/12/13 06:31:54;;;;;;;2.10;0.40;;;;;;;18.36;42.88;99472.53;16132689;19;129442;-51
2023/12/13 06:37:16;;;;;;;5.85;0.55;;;;;;;18.36;42.93;99465.03;16133019;19;133926;-51
2023/12/13 06:42:39;;;;;;;1.75;0.50;;;;;;;18.37;43.20;99482.50;16133117;19;128955;-51
2023/12/13 06:48:01;;;;;;;1.48;0.50;;;;;;;18.36;42.76;99476.13;16132242;19;130144;-49
2023/12/13 06:53:23;;;;;;;0.98;0.45;;;;;;;18.35;42.83;99470.88;16127710;19;134006;-50
2023/12/13 06:58:45;;;;;;;3.80;0.50;;;;;;;18.34;43.13;99472.78;16129508;19;130061;-48
2023/12/13 07:04:07;;;;;;;1.73;0.50;;;;;;;18.33;43.19;99473.94;16111897;19;129700;-48
2023/12/13 07:09:30;;;;;;;1.38;0.52;;;;;;;18.32;42.79;99486.13;16099309;19;129352;-50
2023/12/13 07:14:52;;;;;;;3.30;0.47;;;;;;;18.30;42.93;99478.06;16106916;19;130328;-50
2023/12/13 07:20:15;;;;;;;2.47;0.65;;;;;;;18.30;42.77;99482.78;16113946;19;129462;-52
2023/12/13 07:25:37;;;;;;;1.48;0.57;;;;;;;18.31;42.80;99495.53;16136487;19;129869;-51
2023/12/13 07:31:05;;;;;;;2.10;0.60;;;;;;;18.28;43.28;99488.59;16141103;19;131219;-55
2023/12/13 07:36:31;;;;;;;4.05;0.50;;;;;;;18.27;43.07;99491.66;16138273;19;129366;-50
2023/12/13 07:41:54;;;;;;;2.67;0.52;;;;;;;18.25;43.24;99485.56;16128678;19;129733;-50
2023/12/13 07:47:16;;;;;;;1.05;0.68;;;;;;;18.24;42.95;99490.28;16119321;19;130591;-51
2023/12/13 07:52:38;;;;;;;2.15;0.50;;;;;;;18.24;42.96;99483.88;16124247;19;130709;-47
2023/12/13 07:58:00;;;;;;;2.83;0.80;;;;;;;18.22;43.26;99494.41;16128647;19;129347;-50
2023/12/13 08:03:22;;;;;;;2.92;0.60;;;;;;;18.21;42.85;99501.06;16120308;19;131475;-47
2023/12/13 08:08:44;;;;;;;6.53;0.73;;;;;;;18.19;43.07;99504.09;16118084;19;131572;-50
2023/12/13 08:14:06;;;;;;;2.10;0.50;;;;;;;18.18;43.29;99504.38;16122871;19;130805;-50
2023/12/13 08:19:28;;;;;;;3.28;0.60;;;;;;;18.17;43.07;99511.03;16122498;19;130318;-51
2023/12/13 08:24:51;;;;;;;3.58;1.00;;;;;;;18.15;42.94;99514.91;16124801;19;129589;-52
2023/12/13 08:30:13;;;;;;;1.73;0.38;;;;;;;18.14;43.26;99516.00;16125912;19;129509;-50
2023/12/13 08:35:35;;;;;;;2.95;0.70;;;;;;;18.14;43.10;99520.72;16119436;19;129496;-50
2023/12/13 08:40:57;;;;;;;2.35;0.50;;;;;;;18.14;42.84;99523.50;16124019;19;129826;-50
2023/12/13 08:46:19;;;;;;;1.25;0.65;;;;;;;18.13;43.24;99527.38;16123093;19;129777;-52
2023/12/13 08:51:41;;;;;;;3.70;0.65;;;;;;;18.12;43.31;99531.25;16121968;19;129780;-50
2023/12/13 08:57:04;;;;;;;2.60;0.70;;;;;;;18.11;43.13;99527.63;16119713;19;129443;-53
2023/12/13 09:02:26;;;;;;;1.73;0.45;;;;;;;18.09;43.26;99535.38;16122726;19;130675;-50
2023/12/13 09:07:47;;;;;;;3.03;0.63;;;;;;;18.09;42.91;99540.91;16120878;19;129577;-48
2023/12/13 09:13:09;;;;;;;2.38;0.63;;;;;;;18.09;42.85;99542.84;16119228;19;128998;-51
2023/12/13 09:18:31;;;;;;;1.88;0.60;;;;;;;18.08;42.88;99549.50;16119084;19;129823;-50
2023/12/13 09:23:53;;;;;;;1.90;0.65;;;;;;;18.06;42.93;99552.56;16117925;19;129683;-48
2023/12/13 09:29:15;;;;;;;2.70;0.73;;;;;;;18.06;42.88;99557.25;16118264;19;129090;-51
2023/12/13 09:34:37;;;;;;;3.80;0.98;;;;;;;18.05;42.90;99550.03;16117212;19;130574;-51
2023/12/13 09:39:59;;;;;;;2.85;0.52;;;;;;;18.04;43.26;99554.75;16113972;19;130258;-50
2023/12/13 09:45:24;;;;;;;2.90;0.68;;;;;;;18.04;43.28;99552.00;16111360;19;129763;-51
2023/12/13 09:50:48;;;;;;;1.75;0.68;;;;;;;18.04;42.86;99563.06;16108606;19;129704;-48
2023/12/13 09:56:11;;;;;;;2.03;0.60;;;;;;;18.04;42.82;99578.81;16113238;19;129943;-46
2023/12/13 10:01:33;;;;;;;3.05;0.63;;;;;;;18.04;43.30;99584.34;16105507;19;130446;-49
2023/12/13 10:06:55;;;;;;;1.45;0.50;;;;;;;18.04;43.25;99587.13;16108186;19;130078;-48
2023/12/13 10:12:18;;;;;;;2.13;0.60;;;;;;;18.02;42.98;99587.41;16110505;19;129778;-48
2023/12/13 10:17:40;;;;;;;1.48;0.50;;;;;;;18.02;42.81;99594.91;16112536;19;129868;-49
2023/12/13 10:23:05;;;;;;;3.00;0.73;;;;;;;18.01;43.20;99591.28;16111395;19;129714;-51
2023/12/13 10:28:27;;;;;;;3.25;0.70;;;;;;;18.01;43.18;99588.50;16108108;19;129566;-53
2023/12/13 10:33:49;;;;;;;1.88;0.50;;;;;;;18.00;42.83;99590.47;16108601;19;129538;-49
2023/12/13 10:39:13;;;;;;;2.03;0.47;;;;;;;18.02;43.09;99589.34;16108428;19;129365;-50
2023/12/13 10:44:36;;;;;;;2.63;0.60;;;;;;;18.03;42.79;99591.84;16113320;19;129844;-50
2023/12/13 10:50:00;;;;;;;1.50;0.50;;;;;;;18.01;42.75;99591.28;16113469;19;129422;-49
2023/12/13 10:55:24;;;;;;;2.13;0.50;;;;;;;18.00;43.03;99589.63;16112758;19;129696;-49
2023/12/13 11:00:48;;;;;;;2.13;0.65;;;;;;;17.98;42.83;99591.81;16127309;19;131128;-49
2023/12/13 11:06:14;;;;;;;2.67;0.50;;;;;;;17.99;42.83;99596.25;16126355;19;129118;-49
2023/12/13 11:11:37;;;;;;;1.48;0.40;;;;;;;17.97;43.05;99595.72;16127962;19;129509;-52
2023/12/13 11:16:59;;;;;;;1.40;0.45;;;;;;;17.96;42.91;99594.06;16127037;19;131077;-47
2023/12/13 11:22:23;;;;;;;1.15;0.40;;;;;;;17.97;42.74;99598.50;16124671;19;130453;-47
2023/12/13 11:27:55;;;;;;;1.70;0.45;;;;;;;17.98;42.99;99600.13;16125615;19;131339;-51
2023/12/13 11:33:20;;;;;;;5.03;0.73;;;;;;;17.95;42.85;99597.94;16124617;19;129502;-49
2023/12/13 11:38:43;;;;;;;2.03;0.65;;;;;;;17.95;42.64;99607.03;16122589;19;129484;-49
2023/12/13 11:44:05;;;;;;;0.95;0.45;;;;;;;17.96;43.01;99607.91;16123949;19;129212;-51
2023/12/13 11:49:28;;;;;;;1.33;0.50;;;;;;;17.94;42.65;99607.31;16119718;19;129501;-49
2023/12/13 11:54:50;;;;;;;1.50;0.50;;;;;;;17.94;42.99;99601.78;16120586;19;130848;-47
2023/12/13 12:00:16;;;;;;;1.35;0.50;;;;;;;17.91;42.62;99605.09;16123548;19;129664;-49
2023/12/13 12:05:42;;;;;;;1.38;0.30;;;;;;;17.90;42.74;99601.53;16121645;19;130072;-50
2023/12/13 12:11:04;;;;;;;1.00;0.43;;;;;;;17.89;42.69;99610.06;16123891;19;129440;-48
2023/12/13 12:16:26;;;;;;;1.05;0.50;;;;;;;17.88;42.78;99608.41;16124072;19;131001;-52
2023/12/13 12:21:49;;;;;;;2.55;0.50;;;;;;;17.85;43.05;99610.63;16124060;19;131751;-50
2023/12/13 12:27:15;;;;;;;1.10;0.52;;;;;;;17.85;42.64;99605.06;16121081;19;129332;-50
2023/12/13 12:32:37;;;;;;;1.60;0.50;;;;;;;17.84;42.97;99605.38;16120556;19;130910;-51
2023/12/13 12:37:59;;;;;;;1.50;0.45;;;;;;;17.83;42.91;99607.31;16123265;19;130243;-47
2023/12/13 12:43:21;;;;;;;1.48;0.50;;;;;;;17.81;42.94;99606.75;16122527;19;133659;-48
2023/12/13 12:48:43;;;;;;;0.90;0.30;;;;;;;17.82;42.87;99605.66;16119455;19;129355;-52
2023/12/13 12:54:07;;;;;;;1.00;0.40;;;;;;;17.81;43.07;99620.59;16120480;19;131232;-51
2023/12/13 12:59:29;;;;;;;1.88;0.40;;;;;;;17.81;43.09;99614.19;16114707;19;129491;-53
2023/12/13 13:04:51;;;;;;;1.30;0.50;;;;;;;17.80;42.88;99618.91;16116259;19;130719;-50
2023/12/13 13:10:13;;;;;;;1.02;0.57;;;;;;;17.79;42.89;99620.03;16116809;19;129695;-51
2023/12/13 13:15:35;;;;;;;1.20;0.50;;;;;;;17.79;42.97;99630.25;16116237;19;129455;-50
2023/12/13 13:20:57;;;;;;;1.67;0.40;;;;;;;17.77;43.05;99626.94;16116345;19;129825;-50
2023/12/13 13:26:20;;;;;;;1.10;0.40;;;;;;;17.77;42.80;99630.53;16116013;19;131131;-52
2023/12/13 13:31:42;;;;;;;0.93;0.40;;;;;;;17.76;43.05;99628.84;16114582;19;129915;-51
2023/12/13 13:37:04;;;;;;;0.98;0.47;;;;;;;17.76;42.95;99645.44;16115061;19;130109;-47
2023/12/13 13:42:26;;;;;;;1.58;0.50;;;;;;;17.75;42.81;99643.78;16113579;19;129808;-48
2023/12/13 13:47:47;;;;;;;1.50;0.60;;;;;;;17.74;43.04;99653.19;16112385;19;131158;-52
2023/12/13 13:53:10;;;;;;;1.20;0.38;;;;;;;17.73;43.07;99651.53;16110052;19;129714;-50
2023/12/13 13:58:32;;;;;;;0.93;0.40;;;;;;;17.73;42.92;99646.00;16110427;19;130251;-53
2023/12/13 14:03:54;;;;;;;0.88;0.32;;;;;;;17.72;42.93;99649.88;16111556;19;130311;-50
2023/12/13 14:09:16;;;;;;;0.77;0.40;;;;;;;17.71;42.73;99664.81;16116951;19;135796;-50
2023/12/13 14:14:38;;;;;;;1.40;0.50;;;;;;;17.72;42.68;99673.94;16115772;19;129434;-48
2023/12/13 14:20:00;;;;;;;1.50;0.43;;;;;;;17.70;42.76;99679.75;16114358;19;130105;-50
2023/12/13 14:25:22;;;;;;;0.47;0.30;;;;;;;17.69;43.03;99678.06;16112202;19;129959;-53
2023/12/13 14:30:45;;;;;;;1.20;0.40;;;;;;;17.69;43.04;99691.91;16107198;19;129471;-49
2023/12/13 14:36:07;;;;;;;1.70;0.35;;;;;;;17.68;43.08;99688.28;16110185;19;129851;-51
2023/12/13 14:41:29;;;;;;;1.10;0.30;;;;;;;17.67;43.11;99691.34;16111015;19;131312;-47
2023/12/13 14:46:50;;;;;;;0.90;0.40;;;;;;;17.67;42.76;99703.22;16108249;19;129737;-50
2023/12/13 14:52:13;;;;;;;0.63;0.20;;;;;;;17.66;42.99;99709.03;16109695;19;129367;-48
2023/12/13 14:57:35;;;;;;;1.25;0.50;;;;;;;17.66;42.87;99720.09;16109328;19;129591;-53
2023/12/13 15:02:57;;;;;;;1.17;0.40;;;;;;;17.64;42.58;99728.69;16110561;19;129861;-49
2023/12/13 15:08:19;;;;;;;0.65;0.30;;;;;;;17.64;42.75;99741.66;16110427;19;131778;-49
2023/12/13 15:13:41;;;;;;;1.50;0.68;;;;;;;17.63;42.78;99751.06;16107926;19;131121;-48
2023/12/13 15:19:03;;;;;;;0.43;0.20;;;;;;;17.62;43.00;99749.38;16105051;19;130875;-53
2023/12/13 15:24:28;;;;;;;2.10;0.77;;;;;;;17.61;42.65;99769.84;16105915;19;130928;-50
2023/12/13 15:29:50;;;;;;;1.15;0.60;;;;;;;17.59;42.98;99766.53;16106720;19;129450;-50
2023/12/13 15:35:12;;;;;;;0.63;0.43;;;;;;;17.58;42.82;99778.69;16104413;19;131469;-52
2023/12/13 15:40:33;;;;;;;1.13;0.40;;;;;;;17.58;42.52;99792.53;16105579;19;129672;-50
2023/12/13 15:45:58;;;;;;;1.35;0.43;;;;;;;17.57;42.64;99797.19;16123152;19;131269;-48
2023/12/13 15:51:20;;;;;;;1.30;0.50;;;;;;;17.55;42.65;99804.94;16122785;19;129468;-49
2023/12/13 15:56:42;;;;;;;1.08;0.50;;;;;;;17.57;43.16;99812.97;16118793;19;129621;-53
2023/12/13 16:02:05;;;;;;;1.30;0.60;;;;;;;17.80;42.86;99823.63;16121882;19;129891;-51
2023/12/13 16:07:30;;;;;;;0.80;0.40;;;;;;;18.24;42.10;99829.94;16119088;19;131216;-48
2023/12/13 16:12:53;;;;;;;;;;;;;;;18.72;41.61;99841.75;16120744;19;129522;-51
2023/12/13 16:18:15;;;;;;;0.45;0.40;;;;;;;19.17;41.18;99844.03;16121107;19;129356;-51
2023/12/13 16:23:37;;;;;;;0.80;0.43;;;;;;;19.48;40.43;99857.91;16096945;19;131263;-45
2023/12/13 16:28:58;;;;;;;9.68;0.47;;;;;;;19.61;40.42;99864.88;16112063;19;131129;-49
2023/12/13 16:34:20;;;;;;;3.35;0.77;;;;;;;19.63;39.99;99869.03;16106652;19;131158;-51
2023/12/13 16:39:43;;;;;;;6.15;0.60;;;;;;;19.61;39.79;99879.56;16096891;19;130570;-46
2023/12/13 16:45:06;;;;;;;4.95;0.80;;;;;;;19.57;39.77;99892.31;16094877;19;131010;-48
2023/12/13 16:50:29;;;;;;;6.07;0.90;;;;;;;19.51;39.54;99905.34;16097975;19;130260;-51
2023/12/13 16:55:51;;;;;;;5.55;0.90;;;;;;;19.41;39.79;99922.00;16086262;19;132682;-48
2023/12/13 17:01:13;;;;;;;4.25;0.90;;;;;;;19.34;40.04;99932.53;16093988;19;131481;-48
2023/12/13 17:06:35;;;;;;;7.15;0.80;;;;;;;19.24;40.13;99946.41;16102728;19;131217;-49
2023/12/13 17:11:57;;;;;;;2.75;0.90;;;;;;;19.15;40.25;99957.97;16094590;19;130369;-50
2023/12/13 17:17:19;;;;;;;4.75;1.00;;;;;;;19.05;40.35;99964.34;16101531;19;130733;-48
2023/12/13 17:22:41;;;;;;;4.13;0.85;;;;;;;18.99;40.13;99970.97;16102270;19;132624;-48
2023/12/13 17:28:03;;;;;;;2.17;0.90;;;;;;;18.96;40.40;99974.25;16092437;19;131677;-49
2023/12/13 17:33:25;;;;;;;6.38;1.08;;;;;;;19.00;40.19;99989.25;16088082;19;131272;-50
2023/12/13 17:38:48;;;;;;;4.20;0.98;;;;;;;19.04;40.56;99995.94;16101875;19;130911;-49
2023/12/13 17:44:12;;;;;;;3.90;0.93;;;;;;;19.06;40.41;100006.75;16107217;19;131088;-48
2023/12/13 17:49:36;;;;;;;1.85;0.90;;;;;;;19.08;40.13;100019.22;16109296;19;131397;-46
2023/12/13 17:54:58;;;;;;;3.30;1.10;;;;;;;19.27;40.45;100021.53;16110874;19;129689;-47
2023/12/13 18:00:20;;;;;;;4.35;1.05;;;;;;;19.60;39.88;100036.03;16107211;19;129964;-48
2023/12/13 18:05:44;;;;;;;1.95;0.90;;;;;;;19.96;39.27;100052.72;16107637;19;129663;-49
2023/12/13 18:11:06;;;;;;;1.73;1.05;;;;;;;20.32;38.95;100068.59;16101758;19;130334;-47
2023/12/13 18:16:28;;;;;;;2.45;1.40;;;;;;;20.65;39.10;100084.97;16105838;19;130514;-47
2023/12/13 18:21:50;;;;;;;3.58;1.42;;;;;;;20.96;38.97;100093.25;16107001;19;130040;-50
2023/12/13 18:27:13;;;;;;;2.28;1.40;;;;;;;21.24;38.76;100090.91;16109015;19;129430;-48
2023/12/13 18:32:35;;;;;;;2.90;1.13;;;;;;;21.45;38.36;100095.28;16107421;19;129087;-51
2023/12/13 18:37:58;;;;;;;3.33;1.23;;;;;;;21.55;38.17;100101.94;16106712;19;129790;-47
2023/12/13 18:43:19;;;;;;;3.13;1.30;;;;;;;21.51;38.39;100112.81;16111092;19;129276;-48
2023/12/13 18:48:41;;;;;;;3.45;1.52;;;;;;;21.43;38.39;100127.28;16104687;19;131031;-45
2023/12/13 18:54:03;;;;;;;6.90;1.90;;;;;;;21.28;38.59;100136.53;16097098;19;130112;-50
2023/12/13 18:59:25;;;;;;;3.03;1.77;;;;;;;21.14;38.78;100145.47;16099595;19;132143;-51
2023/12/13 19:04:47;;;;;;;3.35;1.80;;;;;;;21.01;39.30;100165.53;16103317;19;129932;-47
2023/12/13 19:10:10;;;;;;;3.53;1.58;;;;;;;20.87;39.05;100177.22;16105957;19;131826;-46
2023/12/13 19:15:32;;;;;;;6.38;1.92;;;;;;;20.75;39.30;100185.84;16110985;19;129869;-48
2023/12/13 19:20:55;;;;;;;4.15;1.77;;;;;;;20.65;39.49;100182.22;16123087;19;129613;-45
2023/12/13 19:26:18;;;;;;;4.38;1.67;;;;;;;20.51;40.15;100193.91;16119017;19;130403;-50
2023/12/13 19:31:40;;;;;;;4.18;1.73;;;;;;;20.42;40.00;100201.13;16119254;19;131033;-51
2023/12/13 19:37:02;;;;;;;3.35;1.88;;;;;;;20.32;40.35;100209.41;16121213;19;130017;-46
2023/12/13 19:42:24;;;;;;;5.13;2.13;;;;;;;20.23;40.28;100221.06;16121950;19;129605;-52
2023/12/13 19:47:48;;;;;;;3.67;1.85;;;;;;;20.15;40.67;100238.28;16118977;19;129695;-49
2023/12/13 19:53:10;;;;;;;3.95;2.20;;;;;;;20.12;40.68;100244.38;16116816;19;132201;-45
2023/12/13 19:58:32;;;;;;;4.35;2.00;;;;;;;20.17;40.90;100272.16;16118135;19;129842;-46
2023/12/13 20:03:54;;;;;;;3.85;2.10;;;;;;;20.24;40.46;100285.81;16118372;19;130840;-52
2023/12/13 20:09:17;;;;;;;4.30;2.00;;;;;;;20.34;40.69;100298.88;16116461;19;131761;-45
2023/12/13 20:14:39;;;;;;;4.38;1.85;;;;;;;20.41;40.29;100305.84;16120253;19;130582;-49
2023/12/13 20:20:01;;;;;;;5.00;2.05;;;;;;;20.48;40.56;100322.25;16119731;19;133879;-50
2023/12/13 20:25:29;;;;;;;4.68;2.08;;;;;;;20.51;40.26;100326.41;16119832;19;130859;-51
2023/12/13 20:30:51;;;;;;;7.68;2.20;;;;;;;20.54;40.03;100340.63;16113272;19;129566;-52
2023/12/13 20:36:13;;;;;;;5.20;2.42;;;;;;;20.56;40.40;100346.72;16116825;19;130025;-45
2023/12/13 20:41:35;;;;;;;6.38;2.40;;;;;;;20.57;39.88;100359.50;16113269;19;129779;-47
2023/12/13 20:46:57;;;;;;;5.47;2.30;;;;;;;20.56;40.33;100363.38;16113300;19;132111;-44
2023/12/13 20:52:19;;;;;;;4.35;2.50;;;;;;;20.54;40.13;100378.66;16113982;19;131553;-46
2023/12/13 20:57:41;;;;;;;6.00;2.38;;;;;;;20.48;39.99;100388.94;16116356;19;133087;-49
2023/12/13 21:03:03;;;;;;;4.57;2.30;;;;;;;20.43;40.51;100400.03;16112417;19;130331;-48
2023/12/13 21:08:25;;;;;;;3.75;2.58;;;;;;;20.36;40.34;100416.97;16113009;19;129908;-47
2023/12/13 21:13:47;;;;;;;4.53;2.38;;;;;;;20.26;40.59;100433.56;16117422;19;129823;-48
2023/12/13 21:19:09;;;;;;;5.43;2.30;;;;;;;20.18;40.68;100436.84;16115941;19;129747;-55
2023/12/13 21:24:32;;;;;;;4.78;2.35;;;;;;;20.10;40.66;100450.16;16114363;19;132032;-47
2023/12/13 21:29:54;;;;;;;4.68;2.20;;;;;;;20.02;40.35;100447.84;16111291;19;131416;-45
2023/12/13 21:35:16;;;;;;;3.40;2.38;;;;;;;19.94;40.50;100454.72;16107616;19;130664;-48
2023/12/13 21:40:38;;;;;;;5.50;2.80;;;;;;;19.88;40.66;100464.13;16110663;19;130333;-47
2023/12/13 21:46:00;;;;;;;5.30;3.08;;;;;;;19.81;40.82;100483.78;16113667;19;130630;-48
2023/12/13 21:51:22;;;;;;;7.57;3.17;;;;;;;19.75;41.03;100489.53;16109424;19;129599;-52
2023/12/13 21:56:44;;;;;;;7.13;2.78;;;;;;;19.66;41.13;100509.47;16112163;19;130734;-48
2023/12/13 22:02:06;;;;;;;6.55;3.83;;;;;;;19.61;40.62;100514.97;16108674;19;130740;-46
2023/12/13 22:07:28;;;;;;;7.18;4.20;;;;;;;19.52;41.07;100528.47;16109047;19;129895;-44
2023/12/13 22:12:50;;;;;;;7.57;4.47;;;;;;;19.46;40.55;100537.84;16111999;19;129646;-48
2023/12/13 22:18:21;;;;;;;7.07;4.00;;;;;;;19.38;40.56;100544.69;16114165;19;130452;-49
2023/12/13 22:23:44;;;;;;;8.50;4.30;;;;;;;19.32;40.96;100556.81;16108809;19;130112;-48
2023/12/13 22:29:13;;;;;;;7.60;5.25;;;;;;;19.27;40.90;100559.56;16109117;19;130087;-48
2023/12/13 22:34:35;;;;;;;7.90;4.72;;;;;;;19.22;40.87;100565.03;16106491;19;131231;-49
2023/12/13 22:39:58;;;;;;;9.45;5.63;;;;;;;19.17;40.88;100581.59;16109927;19;131029;-47
2023/12/13 22:45:20;;;;;;;8.90;5.28;;;;;;;19.12;40.42;100592.59;16104736;19;129544;-45
2023/12/13 22:50:42;;;;;;;5.72;4.65;;;;;;;19.08;40.62;100604.19;16102173;19;132522;-51
2023/12/13 22:56:05;;;;;;;8.93;5.10;;;;;;;19.04;40.82;100622.47;16104479;19;132196;-45
2023/12/13 23:01:27;;;;;;;7.40;5.43;;;;;;;18.99;40.43;100636.25;16103012;19;129920;-48
2023/12/13 23:06:49;;;;;;;8.13;5.60;;;;;;;18.95;40.63;100639.78;16107193;19;131989;-46
2023/12/13 23:12:11;;;;;;;7.95;5.22;;;;;;;18.90;40.75;100643.34;16106551;19;132694;-50
2023/12/13 23:17:33;;;;;;;10.63;6.70;;;;;;;18.87;40.82;100658.53;16107412;19;129702;-45
2023/12/13 23:22:56;;;;;;;9.07;6.05;;;;;;;18.84;40.43;100678.44;16100942;19;130592;-48
2023/12/13 23:28:18;;;;;;;9.45;5.32;;;;;;;18.79;40.87;100680.31;16096246;19;131354;-46
2023/12/13 23:33:41;;;;;;;8.10;6.05;;;;;;;18.76;40.57;100687.19;16101129;19;130803;-49
2023/12/13 23:39:03;;;;;;;10.45;6.72;;;;;;;18.73;40.67;100696.00;16102361;19;130397;-46
2023/12/13 23:44:26;;;;;;;9.45;6.40;;;;;;;18.68;40.90;100707.88;16102075;19;131385;-45
2023/12/13 23:49:47;;;;;;;10.10;6.88;;;;;;;18.66;40.43;100721.13;16101081;19;129408;-45
2023/12/13 23:55:09;;;;;;;8.73;6.43;;;;;;;18.64;40.42;100747.41;16103669;19;129718;-44
